LEMH/MAH METAR and TAF weather

Enter ICAO airport designator
Station Type Date Time Source
LEMH METAR 2018/12/10 08:30 UTC NOAA

LEMH 100830Z 01006KT 9999 FEW020 BKN030 14/10 Q1028


Station Type Date Time Source
LEMH Decoded METAR 2018/12/10 08:30 UTC NOAA

Menorca / Mahon, Spain (LEMH) 39-52N 004-14E 82M
Dec 10, 2018 - 03:30 AM EST / 2018.12.10 0830 UTC
Wind: from the N (010 degrees) at 7 MPH (6 KT):0
Visibility: greater than 7 mile(s):0
Sky conditions: mostly cloudy
Temperature: 57 F (14 C)
Dew Point: 50 F (10 C)
Relative Humidity: 76%
Pressure (altimeter): 30.36 in. Hg (1028 hPa)
ob: LEMH 100830Z 01006KT 9999 FEW020 BKN030 14/10 Q1028
cycle: 8

Station Type Date Time Source
LEMH TAF 2018/12/10 09:30 UTC NOAA

TAF LEMH 100800Z 1009/1109 01007KT 9999 BKN030 TX16/1012Z TN08/1106Z
TEMPO 1012/1016 01015KT


Example: see airport list